sensor_id;sensor_type;location;lat;lon;timestamp;pressure;altitude;pressure_sealevel;temperature;humidity
34696;BME280;20918;51.138;17.370;2023-06-10T00:00:08;100033.89;;;15.76;90.35
34696;BME280;20918;51.138;17.370;2023-06-10T00:03:16;100040.77;;;15.78;90.45
34696;BME280;20918;51.138;17.370;2023-06-10T00:06:16;100035.30;;;15.79;90.48
34696;BME280;20918;51.138;17.370;2023-06-10T00:09:17;100039.34;;;15.81;90.52
34696;BME280;20918;51.138;17.370;2023-06-10T00:12:18;100039.63;;;15.81;90.52
34696;BME280;20918;51.138;17.370;2023-06-10T00:15:20;100036.84;;;15.82;90.58
34696;BME280;20918;51.138;17.370;2023-06-10T00:18:20;100039.30;;;15.84;90.59
34696;BME280;20918;51.138;17.370;2023-06-10T00:21:22;100041.32;;;15.84;90.56
34696;BME280;20918;51.138;17.370;2023-06-10T00:24:24;100040.98;;;15.84;90.59
34696;BME280;20918;51.138;17.370;2023-06-10T00:27:25;100037.52;;;15.82;90.64
34696;BME280;20918;51.138;17.370;2023-06-10T00:30:31;100036.04;;;15.81;90.72
34696;BME280;20918;51.138;17.370;2023-06-10T00:33:31;100040.13;;;15.83;90.80
34696;BME280;20918;51.138;17.370;2023-06-10T00:36:32;100038.67;;;15.83;90.86
34696;BME280;20918;51.138;17.370;2023-06-10T00:39:32;100042.60;;;15.83;90.86
34696;BME280;20918;51.138;17.370;2023-06-10T00:42:33;100039.05;;;15.83;90.79
34696;BME280;20918;51.138;17.370;2023-06-10T00:45:36;100039.84;;;15.84;90.83
34696;BME280;20918;51.138;17.370;2023-06-10T00:48:37;100040.86;;;15.84;90.92
34696;BME280;20918;51.138;17.370;2023-06-10T00:51:38;100041.61;;;15.84;90.90
34696;BME280;20918;51.138;17.370;2023-06-10T00:54:39;100045.02;;;15.82;90.94
34696;BME280;20918;51.138;17.370;2023-06-10T00:57:40;100043.70;;;15.82;90.94
34696;BME280;20918;51.138;17.370;2023-06-10T01:00:40;100042.63;;;15.81;91.10
34696;BME280;20918;51.138;17.370;2023-06-10T01:03:41;100036.23;;;15.77;91.10
34696;BME280;20918;51.138;17.370;2023-06-10T01:10:02;100033.23;;;15.76;91.46
34696;BME280;20918;51.138;17.370;2023-06-10T01:13:05;100038.51;;;15.75;91.50
34696;BME280;20918;51.138;17.370;2023-06-10T01:16:08;100034.60;;;15.75;91.48
34696;BME280;20918;51.138;17.370;2023-06-10T01:19:10;100031.50;;;15.78;91.74
34696;BME280;20918;51.138;17.370;2023-06-10T01:22:11;100033.08;;;15.81;91.85
34696;BME280;20918;51.138;17.370;2023-06-10T01:25:16;100035.02;;;15.84;91.91
34696;BME280;20918;51.138;17.370;2023-06-10T01:34:34;100032.27;;;15.89;91.92
34696;BME280;20918;51.138;17.370;2023-06-10T01:37:35;100031.61;;;15.86;91.79
34696;BME280;20918;51.138;17.370;2023-06-10T01:40:41;100027.48;;;15.85;91.91
34696;BME280;20918;51.138;17.370;2023-06-10T01:43:43;100025.85;;;15.86;92.06
34696;BME280;20918;51.138;17.370;2023-06-10T01:46:44;100028.06;;;15.85;92.15
34696;BME280;20918;51.138;17.370;2023-06-10T01:49:45;100024.08;;;15.85;92.35
34696;BME280;20918;51.138;17.370;2023-06-10T01:52:46;100025.71;;;15.88;92.53
34696;BME280;20918;51.138;17.370;2023-06-10T01:55:46;100026.84;;;15.89;92.75
34696;BME280;20918;51.138;17.370;2023-06-10T01:58:47;100024.97;;;15.88;92.83
34696;BME280;20918;51.138;17.370;2023-06-10T02:01:47;100031.39;;;15.88;92.59
34696;BME280;20918;51.138;17.370;2023-06-10T02:04:51;100036.71;;;15.87;92.67
34696;BME280;20918;51.138;17.370;2023-06-10T02:07:54;100037.83;;;15.84;92.73
34696;BME280;20918;51.138;17.370;2023-06-10T02:10:56;100033.04;;;15.81;92.70
34696;BME280;20918;51.138;17.370;2023-06-10T02:13:56;100033.73;;;15.79;92.82
34696;BME280;20918;51.138;17.370;2023-06-10T02:16:56;100032.34;;;15.80;92.84
34696;BME280;20918;51.138;17.370;2023-06-10T02:19:57;100028.19;;;15.83;92.93
34696;BME280;20918;51.138;17.370;2023-06-10T02:23:06;100027.48;;;15.85;92.82
34696;BME280;20918;51.138;17.370;2023-06-10T02:26:06;100030.20;;;15.88;92.89
34696;BME280;20918;51.138;17.370;2023-06-10T02:29:07;100028.95;;;15.89;92.73
34696;BME280;20918;51.138;17.370;2023-06-10T02:32:07;100035.23;;;15.86;92.52
34696;BME280;20918;51.138;17.370;2023-06-10T02:35:08;100038.32;;;15.86;92.57
34696;BME280;20918;51.138;17.370;2023-06-10T02:38:12;100038.11;;;15.87;92.46
34696;BME280;20918;51.138;17.370;2023-06-10T02:41:13;100036.23;;;15.88;92.46
34696;BME280;20918;51.138;17.370;2023-06-10T02:44:14;100046.48;;;15.89;92.34
34696;BME280;20918;51.138;17.370;2023-06-10T02:47:15;100047.55;;;15.89;92.32
34696;BME280;20918;51.138;17.370;2023-06-10T02:50:16;100046.80;;;15.88;92.22
34696;BME280;20918;51.138;17.370;2023-06-10T02:53:36;100050.22;;;15.86;92.20
34696;BME280;20918;51.138;17.370;2023-06-10T02:56:40;100053.88;;;15.83;92.27
34696;BME280;20918;51.138;17.370;2023-06-10T02:59:44;100050.98;;;15.75;92.30
34696;BME280;20918;51.138;17.370;2023-06-10T03:02:44;100051.85;;;15.68;92.46
34696;BME280;20918;51.138;17.370;2023-06-10T03:05:46;100059.23;;;15.65;92.80
34696;BME280;20918;51.138;17.370;2023-06-10T03:08:50;100065.07;;;15.65;93.05
34696;BME280;20918;51.138;17.370;2023-06-10T03:11:52;100062.75;;;15.68;93.01
34696;BME280;20918;51.138;17.370;2023-06-10T03:14:53;100068.11;;;15.71;93.00
34696;BME280;20918;51.138;17.370;2023-06-10T03:17:54;100067.09;;;15.73;93.12
34696;BME280;20918;51.138;17.370;2023-06-10T03:20:55;100069.68;;;15.74;93.22
34696;BME280;20918;51.138;17.370;2023-06-10T03:23:57;100071.13;;;15.74;93.17
34696;BME280;20918;51.138;17.370;2023-06-10T03:26:58;100074.96;;;15.73;93.30
34696;BME280;20918;51.138;17.370;2023-06-10T03:29:59;100076.65;;;15.72;93.33
34696;BME280;20918;51.138;17.370;2023-06-10T03:33:01;100072.65;;;15.73;93.31
34696;BME280;20918;51.138;17.370;2023-06-10T03:36:02;100077.02;;;15.72;93.40
34696;BME280;20918;51.138;17.370;2023-06-10T03:39:05;100074.17;;;15.72;93.54
34696;BME280;20918;51.138;17.370;2023-06-10T03:42:05;100074.77;;;15.72;93.61
34696;BME280;20918;51.138;17.370;2023-06-10T03:45:06;100081.01;;;15.73;93.83
34696;BME280;20918;51.138;17.370;2023-06-10T03:48:10;100088.30;;;15.75;94.09
34696;BME280;20918;51.138;17.370;2023-06-10T03:51:22;100092.45;;;15.77;94.14
34696;BME280;20918;51.138;17.370;2023-06-10T03:54:24;100095.99;;;15.77;94.29
34696;BME280;20918;51.138;17.370;2023-06-10T03:57:24;100096.27;;;15.76;94.40
34696;BME280;20918;51.138;17.370;2023-06-10T04:00:25;100095.86;;;15.77;94.60
34696;BME280;20918;51.138;17.370;2023-06-10T04:03:26;100099.21;;;15.77;94.81
34696;BME280;20918;51.138;17.370;2023-06-10T04:06:27;100097.40;;;15.77;94.76
34696;BME280;20918;51.138;17.370;2023-06-10T04:09:29;100097.10;;;15.77;94.99
34696;BME280;20918;51.138;17.370;2023-06-10T04:12:31;100098.34;;;15.77;94.81
34696;BME280;20918;51.138;17.370;2023-06-10T04:15:31;100106.54;;;15.80;94.73
34696;BME280;20918;51.138;17.370;2023-06-10T04:18:38;100100.45;;;15.82;94.65
34696;BME280;20918;51.138;17.370;2023-06-10T04:21:40;100094.95;;;15.86;94.58
34696;BME280;20918;51.138;17.370;2023-06-10T04:24:40;100095.83;;;15.89;94.54
34696;BME280;20918;51.138;17.370;2023-06-10T04:27:42;100095.13;;;15.93;94.58
34696;BME280;20918;51.138;17.370;2023-06-10T04:30:44;100096.66;;;15.95;94.50
34696;BME280;20918;51.138;17.370;2023-06-10T04:33:46;100098.75;;;16.01;94.46
34696;BME280;20918;51.138;17.370;2023-06-10T04:36:47;100096.40;;;16.06;94.60
34696;BME280;20918;51.138;17.370;2023-06-10T04:39:47;100094.89;;;16.15;94.73
34696;BME280;20918;51.138;17.370;2023-06-10T04:42:48;100098.66;;;16.25;94.76
34696;BME280;20918;51.138;17.370;2023-06-10T04:45:49;100104.06;;;16.32;94.64
34696;BME280;20918;51.138;17.370;2023-06-10T04:48:50;100100.89;;;16.36;94.38
34696;BME280;20918;51.138;17.370;2023-06-10T04:51:50;100098.21;;;16.40;94.35
34696;BME280;20918;51.138;17.370;2023-06-10T04:54:51;100098.02;;;16.47;94.38
34696;BME280;20918;51.138;17.370;2023-06-10T04:57:52;100101.98;;;16.50;94.05
34696;BME280;20918;51.138;17.370;2023-06-10T05:00:52;100107.62;;;16.52;93.90
34696;BME280;20918;51.138;17.370;2023-06-10T05:03:53;100105.67;;;16.53;93.75
34696;BME280;20918;51.138;17.370;2023-06-10T05:06:53;100108.15;;;16.59;93.86
34696;BME280;20918;51.138;17.370;2023-06-10T05:09:54;100113.50;;;16.62;93.76
34696;BME280;20918;51.138;17.370;2023-06-10T05:12:54;100116.91;;;16.65;93.70
34696;BME280;20918;51.138;17.370;2023-06-10T05:15:55;100118.29;;;16.72;93.61
34696;BME280;20918;51.138;17.370;2023-06-10T05:18:55;100122.92;;;16.82;93.87
34696;BME280;20918;51.138;17.370;2023-06-10T05:21:56;100125.65;;;16.91;93.82
34696;BME280;20918;51.138;17.370;2023-06-10T05:24:56;100126.78;;;17.01;94.00
34696;BME280;20918;51.138;17.370;2023-06-10T05:27:57;100128.33;;;17.15;93.98
34696;BME280;20918;51.138;17.370;2023-06-10T05:30:58;100133.95;;;17.22;93.49
34696;BME280;20918;51.138;17.370;2023-06-10T05:33:58;100133.34;;;17.24;92.66
34696;BME280;20918;51.138;17.370;2023-06-10T05:36:59;100138.83;;;17.24;92.78
34696;BME280;20918;51.138;17.370;2023-06-10T05:39:59;100142.86;;;17.29;92.88
34696;BME280;20918;51.138;17.370;2023-06-10T05:43:02;100142.88;;;17.35;93.03
34696;BME280;20918;51.138;17.370;2023-06-10T05:46:03;100146.48;;;17.42;92.56
34696;BME280;20918;51.138;17.370;2023-06-10T05:49:06;100143.84;;;17.46;92.43
34696;BME280;20918;51.138;17.370;2023-06-10T05:52:09;100145.43;;;17.52;92.48
34696;BME280;20918;51.138;17.370;2023-06-10T05:55:13;100148.14;;;17.58;92.43
34696;BME280;20918;51.138;17.370;2023-06-10T05:58:13;100153.36;;;17.62;92.15
34696;BME280;20918;51.138;17.370;2023-06-10T06:01:14;100150.75;;;17.65;91.98
34696;BME280;20918;51.138;17.370;2023-06-10T06:04:15;100149.91;;;17.70;92.10
34696;BME280;20918;51.138;17.370;2023-06-10T06:07:16;100149.77;;;17.75;91.72
34696;BME280;20918;51.138;17.370;2023-06-10T06:10:20;100153.14;;;17.81;91.76
34696;BME280;20918;51.138;17.370;2023-06-10T06:13:20;100150.35;;;17.88;91.34
34696;BME280;20918;51.138;17.370;2023-06-10T06:16:21;100153.52;;;17.93;90.96
34696;BME280;20918;51.138;17.370;2023-06-10T06:19:21;100149.95;;;17.96;90.50
34696;BME280;20918;51.138;17.370;2023-06-10T06:22:24;100152.67;;;17.95;89.76
34696;BME280;20918;51.138;17.370;2023-06-10T06:25:26;100157.01;;;17.96;89.64
34696;BME280;20918;51.138;17.370;2023-06-10T06:28:26;100160.30;;;17.98;90.02
34696;BME280;20918;51.138;17.370;2023-06-10T06:31:29;100163.00;;;18.02;90.23
34696;BME280;20918;51.138;17.370;2023-06-10T06:34:30;100163.89;;;18.07;90.41
34696;BME280;20918;51.138;17.370;2023-06-10T06:37:30;100166.05;;;18.13;90.17
34696;BME280;20918;51.138;17.370;2023-06-10T06:40:49;100176.14;;;18.27;90.79
34696;BME280;20918;51.138;17.370;2023-06-10T06:43:53;100181.70;;;18.41;90.76
34696;BME280;20918;51.138;17.370;2023-06-10T06:47:04;100185.84;;;18.47;89.96
34696;BME280;20918;51.138;17.370;2023-06-10T06:50:07;100185.70;;;18.48;89.56
34696;BME280;20918;51.138;17.370;2023-06-10T06:53:08;100192.39;;;18.49;89.11
34696;BME280;20918;51.138;17.370;2023-06-10T06:56:08;100195.31;;;18.50;88.89
34696;BME280;20918;51.138;17.370;2023-06-10T06:59:09;100196.63;;;18.52;88.89
34696;BME280;20918;51.138;17.370;2023-06-10T07:02:10;100196.79;;;18.54;88.49
34696;BME280;20918;51.138;17.370;2023-06-10T07:05:13;100200.48;;;18.54;88.31
34696;BME280;20918;51.138;17.370;2023-06-10T07:08:13;100203.83;;;18.59;88.28
34696;BME280;20918;51.138;17.370;2023-06-10T07:11:14;100205.00;;;18.65;88.25
34696;BME280;20918;51.138;17.370;2023-06-10T07:14:15;100208.23;;;18.75;87.97
34696;BME280;20918;51.138;17.370;2023-06-10T07:17:15;100211.02;;;18.85;87.42
34696;BME280;20918;51.138;17.370;2023-06-10T07:20:16;100215.21;;;18.94;87.11
34696;BME280;20918;51.138;17.370;2023-06-10T07:23:16;100218.05;;;19.06;87.04
34696;BME280;20918;51.138;17.370;2023-06-10T07:26:17;100223.13;;;19.21;86.97
34696;BME280;20918;51.138;17.370;2023-06-10T07:29:17;100216.78;;;19.46;86.60
34696;BME280;20918;51.138;17.370;2023-06-10T07:32:18;100219.77;;;19.67;85.90
34696;BME280;20918;51.138;17.370;2023-06-10T07:35:20;100214.92;;;19.89;85.08
34696;BME280;20918;51.138;17.370;2023-06-10T07:38:21;100217.73;;;20.18;85.19
34696;BME280;20918;51.138;17.370;2023-06-10T07:41:22;100213.20;;;20.48;84.19
34696;BME280;20918;51.138;17.370;2023-06-10T07:44:23;100217.05;;;20.73;84.24
34696;BME280;20918;51.138;17.370;2023-06-10T07:47:23;100219.77;;;20.87;82.56
34696;BME280;20918;51.138;17.370;2023-06-10T07:50:29;100216.12;;;20.90;81.46
34696;BME280;20918;51.138;17.370;2023-06-10T07:53:32;100216.59;;;20.96;81.14
34696;BME280;20918;51.138;17.370;2023-06-10T07:56:34;100217.95;;;21.19;81.51
34696;BME280;20918;51.138;17.370;2023-06-10T07:59:35;100220.16;;;21.54;80.95
34696;BME280;20918;51.138;17.370;2023-06-10T08:02:38;100220.08;;;21.91;78.63
34696;BME280;20918;51.138;17.370;2023-06-10T08:05:42;100219.79;;;22.03;75.67
34696;BME280;20918;51.138;17.370;2023-06-10T08:08:43;100219.50;;;22.13;75.20
34696;BME280;20918;51.138;17.370;2023-06-10T08:11:46;100220.38;;;22.41;74.60
34696;BME280;20918;51.138;17.370;2023-06-10T08:14:54;100219.41;;;22.72;74.25
34696;BME280;20918;51.138;17.370;2023-06-10T08:17:55;100214.22;;;23.07;72.74
34696;BME280;20918;51.138;17.370;2023-06-10T08:21:01;100218.65;;;23.06;71.55
34696;BME280;20918;51.138;17.370;2023-06-10T08:24:09;100225.23;;;22.98;72.05
34696;BME280;20918;51.138;17.370;2023-06-10T08:27:09;100227.83;;;22.98;70.87
34696;BME280;20918;51.138;17.370;2023-06-10T08:30:11;100228.02;;;22.88;70.20
34696;BME280;20918;51.138;17.370;2023-06-10T08:33:13;100230.00;;;22.77;69.58
34696;BME280;20918;51.138;17.370;2023-06-10T08:36:13;100235.67;;;22.70;69.51
34696;BME280;20918;51.138;17.370;2023-06-10T08:39:14;100237.74;;;22.69;69.57
34696;BME280;20918;51.138;17.370;2023-06-10T08:45:18;100238.02;;;22.97;68.30
34696;BME280;20918;51.138;17.370;2023-06-10T08:48:19;100235.47;;;23.34;68.38
34696;BME280;20918;51.138;17.370;2023-06-10T08:51:19;100239.77;;;23.79;66.41
34696;BME280;20918;51.138;17.370;2023-06-10T08:54:21;100237.05;;;24.20;67.35
34696;BME280;20918;51.138;17.370;2023-06-10T08:57:22;100234.08;;;24.59;66.54
34696;BME280;20918;51.138;17.370;2023-06-10T09:00:23;100233.09;;;24.87;65.34
34696;BME280;20918;51.138;17.370;2023-06-10T09:03:23;100230.00;;;25.16;64.57
34696;BME280;20918;51.138;17.370;2023-06-10T09:06:24;100230.88;;;25.36;64.40
34696;BME280;20918;51.138;17.370;2023-06-10T09:09:25;100227.02;;;25.65;63.74
34696;BME280;20918;51.138;17.370;2023-06-10T09:12:28;100224.28;;;26.09;64.02
34696;BME280;20918;51.138;17.370;2023-06-10T09:15:28;100223.02;;;26.64;63.41
34696;BME280;20918;51.138;17.370;2023-06-10T09:18:29;100223.08;;;26.64;62.72
34696;BME280;20918;51.138;17.370;2023-06-10T09:21:30;100223.85;;;26.47;61.68
34696;BME280;20918;51.138;17.370;2023-06-10T09:24:33;100221.49;;;26.03;60.96
34696;BME280;20918;51.138;17.370;2023-06-10T09:27:35;100216.06;;;25.80;61.73
34696;BME280;20918;51.138;17.370;2023-06-10T09:30:46;100214.70;;;26.03;61.63
34696;BME280;20918;51.138;17.370;2023-06-10T09:33:51;100207.27;;;26.27;60.20
34696;BME280;20918;51.138;17.370;2023-06-10T09:36:54;100205.85;;;26.47;60.05
34696;BME280;20918;51.138;17.370;2023-06-10T09:40:03;100199.78;;;26.65;59.50
34696;BME280;20918;51.138;17.370;2023-06-10T09:43:04;100193.27;;;26.81;58.45
34696;BME280;20918;51.138;17.370;2023-06-10T09:46:05;100189.66;;;26.90;57.60
34696;BME280;20918;51.138;17.370;2023-06-10T09:49:08;100186.00;;;27.04;57.06
34696;BME280;20918;51.138;17.370;2023-06-10T09:52:08;100184.20;;;26.93;53.61
34696;BME280;20918;51.138;17.370;2023-06-10T09:55:11;100181.89;;;26.74;54.05
34696;BME280;20918;51.138;17.370;2023-06-10T09:58:14;100182.42;;;26.73;53.86
34696;BME280;20918;51.138;17.370;2023-06-10T10:01:15;100187.04;;;26.93;54.80
34696;BME280;20918;51.138;17.370;2023-06-10T10:04:22;100187.52;;;27.09;54.52
34696;BME280;20918;51.138;17.370;2023-06-10T10:07:23;100183.94;;;26.80;53.20
34696;BME280;20918;51.138;17.370;2023-06-10T10:10:23;100182.05;;;26.47;54.44
34696;BME280;20918;51.138;17.370;2023-06-10T10:13:24;100185.31;;;26.41;55.07
34696;BME280;20918;51.138;17.370;2023-06-10T10:16:37;100186.41;;;26.16;54.94
34696;BME280;20918;51.138;17.370;2023-06-10T10:19:48;100182.81;;;25.61;53.54
34696;BME280;20918;51.138;17.370;2023-06-10T10:22:52;100177.32;;;25.20;53.28
34696;BME280;20918;51.138;17.370;2023-06-10T10:25:54;100176.41;;;25.00;53.66
34696;BME280;20918;51.138;17.370;2023-06-10T10:29:00;100173.60;;;25.09;54.34
34696;BME280;20918;51.138;17.370;2023-06-10T10:32:01;100168.21;;;25.08;54.33
34696;BME280;20918;51.138;17.370;2023-06-10T10:38:07;100158.56;;;25.24;53.31
34696;BME280;20918;51.138;17.370;2023-06-10T10:41:09;100157.40;;;25.50;54.18
34696;BME280;20918;51.138;17.370;2023-06-10T10:44:09;100152.45;;;25.86;53.28
34696;BME280;20918;51.138;17.370;2023-06-10T10:47:11;100148.07;;;25.94;52.29
34696;BME280;20918;51.138;17.370;2023-06-10T10:50:14;100146.58;;;26.04;52.02
34696;BME280;20918;51.138;17.370;2023-06-10T10:53:19;100141.63;;;25.99;50.74
34696;BME280;20918;51.138;17.370;2023-06-10T10:56:20;100140.45;;;25.76;51.59
34696;BME280;20918;51.138;17.370;2023-06-10T10:59:21;100140.27;;;25.74;51.10
34696;BME280;20918;51.138;17.370;2023-06-10T11:11:48;100130.16;;;26.49;49.00
34696;BME280;20918;51.138;17.370;2023-06-10T11:14:53;100127.84;;;26.72;49.21
34696;BME280;20918;51.138;17.370;2023-06-10T11:21:07;100125.11;;;26.70;46.08
34696;BME280;20918;51.138;17.370;2023-06-10T11:24:14;100125.59;;;26.47;46.11
34696;BME280;20918;51.138;17.370;2023-06-10T11:27:18;100126.35;;;26.46;46.93
34696;BME280;20918;51.138;17.370;2023-06-10T11:30:19;100128.77;;;26.57;45.86
34696;BME280;20918;51.138;17.370;2023-06-10T11:33:25;100128.55;;;26.55;44.89
34696;BME280;20918;51.138;17.370;2023-06-10T11:36:26;100129.67;;;26.41;43.77
34696;BME280;20918;51.138;17.370;2023-06-10T11:39:29;100133.73;;;26.26;42.63
34696;BME280;20918;51.138;17.370;2023-06-10T11:42:30;100138.70;;;26.08;42.58
34696;BME280;20918;51.138;17.370;2023-06-10T11:45:33;100138.75;;;25.99;43.84
34696;BME280;20918;51.138;17.370;2023-06-10T11:48:34;100134.87;;;25.97;43.11
34696;BME280;20918;51.138;17.370;2023-06-10T11:51:38;100137.58;;;25.91;43.59
34696;BME280;20918;51.138;17.370;2023-06-10T11:54:41;100139.36;;;25.88;43.69
34696;BME280;20918;51.138;17.370;2023-06-10T11:57:43;100135.14;;;25.95;43.47
34696;BME280;20918;51.138;17.370;2023-06-10T12:00:48;100138.89;;;25.94;43.27
34696;BME280;20918;51.138;17.370;2023-06-10T12:03:58;100135.25;;;25.92;42.81
34696;BME280;20918;51.138;17.370;2023-06-10T12:07:02;100127.35;;;25.90;42.80
34696;BME280;20918;51.138;17.370;2023-06-10T12:10:05;100120.23;;;26.07;43.56
34696;BME280;20918;51.138;17.370;2023-06-10T12:13:08;100119.80;;;26.35;44.23
34696;BME280;20918;51.138;17.370;2023-06-10T12:16:11;100122.77;;;26.53;43.79
34696;BME280;20918;51.138;17.370;2023-06-10T12:19:12;100126.00;;;26.30;41.80
34696;BME280;20918;51.138;17.370;2023-06-10T12:22:15;100124.03;;;26.19;41.88
34696;BME280;20918;51.138;17.370;2023-06-10T12:25:26;100116.65;;;26.36;41.52
34696;BME280;20918;51.138;17.370;2023-06-10T12:28:29;100119.29;;;26.55;41.18
34696;BME280;20918;51.138;17.370;2023-06-10T12:31:33;100118.04;;;26.65;40.91
34696;BME280;20918;51.138;17.370;2023-06-10T12:34:37;100118.25;;;26.78;39.17
34696;BME280;20918;51.138;17.370;2023-06-10T12:37:53;100117.91;;;26.83;38.01
34696;BME280;20918;51.138;17.370;2023-06-10T12:41:02;100112.86;;;26.78;37.12
34696;BME280;20918;51.138;17.370;2023-06-10T12:44:06;100110.02;;;26.79;36.76
34696;BME280;20918;51.138;17.370;2023-06-10T12:47:07;100103.71;;;26.72;35.07
34696;BME280;20918;51.138;17.370;2023-06-10T12:50:09;100106.77;;;26.68;36.51
34696;BME280;20918;51.138;17.370;2023-06-10T12:53:11;100103.19;;;26.68;36.80
34696;BME280;20918;51.138;17.370;2023-06-10T12:56:11;100106.55;;;26.67;36.91
34696;BME280;20918;51.138;17.370;2023-06-10T12:59:12;100110.59;;;26.60;35.10
34696;BME280;20918;51.138;17.370;2023-06-10T13:02:13;100106.29;;;26.49;35.23
34696;BME280;20918;51.138;17.370;2023-06-10T13:05:13;100104.10;;;26.42;34.99
34696;BME280;20918;51.138;17.370;2023-06-10T13:08:14;100112.14;;;26.30;33.92
34696;BME280;20918;51.138;17.370;2023-06-10T13:11:17;100105.45;;;26.26;35.03
34696;BME280;20918;51.138;17.370;2023-06-10T13:14:20;100111.16;;;26.30;35.68
34696;BME280;20918;51.138;17.370;2023-06-10T13:17:21;100114.70;;;26.32;35.46
34696;BME280;20918;51.138;17.370;2023-06-10T13:20:24;100116.54;;;26.24;33.98
34696;BME280;20918;51.138;17.370;2023-06-10T13:23:31;100116.48;;;26.10;33.18
34696;BME280;20918;51.138;17.370;2023-06-10T13:26:31;100119.02;;;26.10;33.05
34696;BME280;20918;51.138;17.370;2023-06-10T13:29:35;100116.30;;;26.08;32.47
34696;BME280;20918;51.138;17.370;2023-06-10T13:32:36;100119.92;;;25.98;32.55
34696;BME280;20918;51.138;17.370;2023-06-10T13:35:39;100120.45;;;25.87;32.36
34696;BME280;20918;51.138;17.370;2023-06-10T13:38:39;100125.44;;;25.85;32.64
34696;BME280;20918;51.138;17.370;2023-06-10T13:41:42;100121.17;;;25.83;32.32
34696;BME280;20918;51.138;17.370;2023-06-10T13:44:43;100118.84;;;25.82;32.93
34696;BME280;20918;51.138;17.370;2023-06-10T13:47:43;100124.05;;;25.81;32.47
34696;BME280;20918;51.138;17.370;2023-06-10T13:50:44;100120.13;;;25.78;32.38
34696;BME280;20918;51.138;17.370;2023-06-10T13:53:45;100118.15;;;25.72;30.89
34696;BME280;20918;51.138;17.370;2023-06-10T13:56:46;100123.23;;;25.66;31.62
34696;BME280;20918;51.138;17.370;2023-06-10T13:59:47;100121.31;;;25.59;30.43
34696;BME280;20918;51.138;17.370;2023-06-10T14:02:48;100124.80;;;25.52;29.97
34696;BME280;20918;51.138;17.370;2023-06-10T14:05:48;100123.70;;;25.47;30.66
34696;BME280;20918;51.138;17.370;2023-06-10T14:08:49;100122.54;;;25.53;30.96
34696;BME280;20918;51.138;17.370;2023-06-10T14:11:49;100118.42;;;25.55;31.28
34696;BME280;20918;51.138;17.370;2023-06-10T14:14:50;100120.10;;;25.59;30.29
34696;BME280;20918;51.138;17.370;2023-06-10T14:17:53;100116.00;;;25.63;30.25
34696;BME280;20918;51.138;17.370;2023-06-10T14:20:56;100121.48;;;25.65;30.79
34696;BME280;20918;51.138;17.370;2023-06-10T14:23:56;100122.05;;;25.68;30.84
34696;BME280;20918;51.138;17.370;2023-06-10T14:26:57;100116.59;;;25.63;30.72
34696;BME280;20918;51.138;17.370;2023-06-10T14:29:58;100114.15;;;25.64;31.14
34696;BME280;20918;51.138;17.370;2023-06-10T14:32:59;100111.92;;;25.64;30.91
34696;BME280;20918;51.138;17.370;2023-06-10T14:36:02;100116.35;;;25.58;30.67
34696;BME280;20918;51.138;17.370;2023-06-10T14:39:08;100114.42;;;25.49;30.59
34696;BME280;20918;51.138;17.370;2023-06-10T14:42:11;100115.02;;;25.37;30.21
34696;BME280;20918;51.138;17.370;2023-06-10T14:45:12;100108.63;;;25.29;30.25
34696;BME280;20918;51.138;17.370;2023-06-10T14:48:15;100109.38;;;25.26;30.44
34696;BME280;20918;51.138;17.370;2023-06-10T14:51:15;100110.08;;;25.25;30.87
34696;BME280;20918;51.138;17.370;2023-06-10T14:54:16;100108.77;;;25.23;30.84
34696;BME280;20918;51.138;17.370;2023-06-10T14:57:18;100107.66;;;25.22;31.91
34696;BME280;20918;51.138;17.370;2023-06-10T15:00:24;100102.36;;;25.22;32.49
34696;BME280;20918;51.138;17.370;2023-06-10T15:03:25;100107.92;;;25.27;32.65
34696;BME280;20918;51.138;17.370;2023-06-10T15:06:29;100107.27;;;25.30;32.51
34696;BME280;20918;51.138;17.370;2023-06-10T15:09:30;100107.83;;;25.30;32.77
34696;BME280;20918;51.138;17.370;2023-06-10T15:12:31;100110.41;;;25.28;33.16
34696;BME280;20918;51.138;17.370;2023-06-10T15:15:32;100119.32;;;25.27;33.43
34696;BME280;20918;51.138;17.370;2023-06-10T15:18:35;100117.65;;;25.28;33.89
34696;BME280;20918;51.138;17.370;2023-06-10T15:21:35;100122.43;;;25.31;34.39
34696;BME280;20918;51.138;17.370;2023-06-10T15:24:42;100122.71;;;25.34;34.11
34696;BME280;20918;51.138;17.370;2023-06-10T15:27:44;100121.52;;;25.34;34.25
34696;BME280;20918;51.138;17.370;2023-06-10T15:30:48;100124.14;;;25.34;34.00
34696;BME280;20918;51.138;17.370;2023-06-10T15:33:51;100124.09;;;25.37;34.07
34696;BME280;20918;51.138;17.370;2023-06-10T15:36:52;100132.16;;;25.32;33.28
34696;BME280;20918;51.138;17.370;2023-06-10T15:39:56;100130.80;;;25.21;32.69
34696;BME280;20918;51.138;17.370;2023-06-10T15:42:58;100132.00;;;25.15;32.55
34696;BME280;20918;51.138;17.370;2023-06-10T15:46:01;100134.61;;;25.11;32.35
34696;BME280;20918;51.138;17.370;2023-06-10T15:49:02;100132.44;;;25.08;32.31
34696;BME280;20918;51.138;17.370;2023-06-10T15:52:03;100136.34;;;25.07;32.61
34696;BME280;20918;51.138;17.370;2023-06-10T15:55:04;100131.75;;;25.02;31.53
34696;BME280;20918;51.138;17.370;2023-06-10T15:58:07;100134.18;;;25.00;31.98
34696;BME280;20918;51.138;17.370;2023-06-10T16:01:07;100133.63;;;24.98;32.26
34696;BME280;20918;51.138;17.370;2023-06-10T16:04:09;100136.16;;;24.97;32.16
34696;BME280;20918;51.138;17.370;2023-06-10T16:07:09;100140.54;;;24.94;31.53